createdAt,value
2022-10-14T00:01:18.047Z,43.75
2022-10-14T00:03:47.752Z,38.08
2022-10-14T00:06:17.933Z,42.30
2022-10-14T00:08:45.523Z,39.78
2022-10-14T00:11:17.363Z,40.13
2022-10-14T00:13:46.840Z,43.53
2022-10-14T00:16:28.306Z,42.05
2022-10-14T00:18:55.326Z,41.25
2022-10-14T00:21:24.972Z,41.67
2022-10-14T00:23:55.319Z,39.78
2022-10-14T00:26:31.332Z,41.75
2022-10-14T00:28:59.365Z,40.53
2022-10-14T00:31:26.843Z,44.05
2022-10-14T00:33:53.584Z,41.85
2022-10-14T00:36:22.014Z,43.03
2022-10-14T00:38:49.124Z,39.97
2022-10-14T00:41:22.719Z,37.65
2022-10-14T00:44:27.672Z,41.50
2022-10-14T00:46:58.662Z,44.70
2022-10-14T00:49:32.031Z,42.03
2022-10-14T00:52:11.238Z,47.90
2022-10-14T00:54:42.590Z,41.00
2022-10-14T00:57:10.303Z,43.15
2022-10-14T00:59:36.918Z,40.53
2022-10-14T01:02:06.387Z,38.78
2022-10-14T01:04:34.145Z,37.50
2022-10-14T01:07:12.953Z,41.72
2022-10-14T01:09:50.843Z,40.05
2022-10-14T01:12:29.224Z,39.17
2022-10-14T01:15:36.582Z,44.70
2022-10-14T01:18:36.352Z,46.88
2022-10-14T01:21:25.131Z,33.28
2022-10-14T01:24:20.415Z,41.83
2022-10-14T01:27:18.375Z,39.40
2022-10-14T01:30:11.859Z,37.40
2022-10-14T01:32:49.004Z,37.08
2022-10-14T01:35:29.653Z,42.45
2022-10-14T01:38:04.654Z,36.13
2022-10-14T01:40:44.918Z,35.58
2022-10-14T01:43:13.535Z,33.17
2022-10-14T01:45:43.655Z,36.03
2022-10-14T01:48:13.458Z,36.08
2022-10-14T01:50:44.627Z,32.55
2022-10-14T01:53:34.191Z,30.25
2022-10-14T01:56:02.997Z,33.35
2022-10-14T01:58:34.546Z,35.05
2022-10-14T02:01:04.427Z,29.98
2022-10-14T02:03:57.370Z,32.47
2022-10-14T02:06:36.330Z,32.58
2022-10-14T02:09:11.175Z,32.05
2022-10-14T02:11:54.819Z,31.13
2022-10-14T02:14:38.338Z,34.65
2022-10-14T02:17:26.768Z,37.13
2022-10-14T02:19:58.404Z,39.13
2022-10-14T02:22:46.911Z,34.55
2022-10-14T02:25:27.136Z,39.58
2022-10-14T02:27:54.660Z,35.70
2022-10-14T02:30:22.398Z,36.58
2022-10-14T02:32:50.195Z,36.05
2022-10-14T02:35:20.028Z,33.15
2022-10-14T02:37:49.348Z,33.60
2022-10-14T02:40:22.569Z,39.90
2022-10-14T02:42:50.313Z,38.35
2022-10-14T02:45:17.441Z,38.72
2022-10-14T02:47:46.987Z,34.13
2022-10-14T02:50:13.647Z,33.67
2022-10-14T02:52:40.235Z,33.45
2022-10-14T02:55:07.366Z,33.38
2022-10-14T02:57:34.373Z,35.42
2022-10-14T03:00:00.964Z,33.42
2022-10-14T03:02:27.611Z,33.28
2022-10-14T03:04:56.906Z,32.38
2022-10-14T03:07:24.188Z,35.88
2022-10-14T03:09:50.834Z,33.65
2022-10-14T03:12:17.444Z,31.55
2022-10-14T03:14:44.075Z,35.72
2022-10-14T03:17:11.522Z,33.88
2022-10-14T03:19:38.090Z,43.17
2022-10-14T03:22:04.806Z,34.20
2022-10-14T03:24:31.466Z,36.20
2022-10-14T03:26:58.289Z,30.10
2022-10-14T03:29:25.149Z,36.83
2022-10-14T03:31:51.884Z,31.88
2022-10-14T03:34:19.026Z,35.55
2022-10-14T03:36:45.674Z,28.73
2022-10-14T03:39:12.394Z,33.50
2022-10-14T03:41:39.648Z,35.22
2022-10-14T03:44:08.883Z,28.27
2022-10-14T03:46:35.486Z,35.92
2022-10-14T03:49:02.121Z,29.58
2022-10-14T03:51:28.744Z,33.88
2022-10-14T03:53:55.286Z,35.03
2022-10-14T03:56:22.488Z,33.15
2022-10-14T03:58:49.301Z,32.08
2022-10-14T04:01:16.111Z,31.65
2022-10-14T04:03:42.922Z,31.25
2022-10-14T04:06:09.581Z,27.60
2022-10-14T04:08:36.205Z,30.40
2022-10-14T04:11:02.847Z,31.60
2022-10-14T04:13:29.423Z,30.23
2022-10-14T04:15:56.275Z,28.25
2022-10-14T04:18:22.812Z,29.38
2022-10-14T04:20:49.386Z,31.23
2022-10-14T04:23:18.305Z,27.38
2022-10-14T04:25:47.330Z,29.80
2022-10-14T04:28:16.505Z,30.25
2022-10-14T04:30:43.192Z,27.65
2022-10-14T04:33:09.808Z,32.35
2022-10-14T04:35:36.422Z,26.73
2022-10-14T04:38:03.175Z,25.38
2022-10-14T04:40:34.130Z,29.25
2022-10-14T04:43:00.885Z,26.35
2022-10-14T04:45:27.928Z,30.67
2022-10-14T04:47:54.523Z,28.45
2022-10-14T04:50:21.985Z,24.88
2022-10-14T04:52:48.661Z,27.95
2022-10-14T04:55:17.783Z,26.15
2022-10-14T04:57:44.578Z,24.33
2022-10-14T05:00:12.602Z,24.45
2022-10-14T05:02:42.117Z,23.00
2022-10-14T05:05:09.351Z,25.63
2022-10-14T05:07:36.759Z,24.83
2022-10-14T05:10:04.785Z,24.63
2022-10-14T05:12:32.848Z,21.38
2022-10-14T05:15:05.517Z,24.48
2022-10-14T05:17:33.060Z,21.55
2022-10-14T05:19:59.826Z,24.05
2022-10-14T05:22:29.529Z,21.02
2022-10-14T05:24:56.225Z,19.58
2022-10-14T05:27:23.215Z,18.77
2022-10-14T05:29:49.812Z,17.27
2022-10-14T05:32:16.422Z,16.67
2022-10-14T05:34:43.076Z,19.38
2022-10-14T05:37:10.182Z,18.75
2022-10-14T05:39:37.011Z,18.08
2022-10-14T05:42:03.958Z,16.10
2022-10-14T05:44:30.634Z,16.38
2022-10-14T05:46:59.508Z,18.17
2022-10-14T05:49:26.289Z,16.30
2022-10-14T05:51:55.339Z,14.90
2022-10-14T05:54:21.982Z,15.30
2022-10-14T05:56:48.593Z,15.90
2022-10-14T05:59:15.299Z,16.73
2022-10-14T06:01:44.283Z,15.00
2022-10-14T06:04:20.528Z,18.23
2022-10-14T06:06:47.273Z,16.27
2022-10-14T06:09:14.712Z,15.93
2022-10-14T06:11:41.336Z,13.55
2022-10-14T06:14:08.451Z,17.55
2022-10-14T06:16:37.304Z,16.48
2022-10-14T06:19:04.127Z,14.07
2022-10-14T06:21:30.880Z,13.15
2022-10-14T06:23:57.438Z,17.85
2022-10-14T06:26:24.241Z,13.40
2022-10-14T06:28:50.914Z,15.18
2022-10-14T06:31:17.585Z,14.23
2022-10-14T06:33:45.189Z,13.68
2022-10-14T06:36:12.183Z,12.00
2022-10-14T06:38:39.227Z,13.93
2022-10-14T06:41:06.179Z,13.43
2022-10-14T06:43:32.834Z,14.73
2022-10-14T06:45:59.710Z,14.40
2022-10-14T06:48:29.526Z,13.40
2022-10-14T06:50:59.136Z,12.77
2022-10-14T06:53:26.541Z,11.55
2022-10-14T06:56:05.250Z,12.00
2022-10-14T06:58:33.032Z,13.40
2022-10-14T07:01:07.572Z,17.65
2022-10-14T07:03:38.907Z,12.75
2022-10-14T07:06:07.238Z,12.98
2022-10-14T07:08:34.214Z,9.93
2022-10-14T07:11:01.168Z,10.57
2022-10-14T07:13:28.706Z,13.00
2022-10-14T07:15:55.341Z,10.32
2022-10-14T07:18:22.387Z,10.60
2022-10-14T07:20:51.365Z,11.00
2022-10-14T07:23:20.494Z,10.90
2022-10-14T07:25:47.175Z,10.35
2022-10-14T07:28:14.021Z,12.02
2022-10-14T07:30:41.092Z,12.02
2022-10-14T07:33:07.727Z,15.80
2022-10-14T07:35:38.290Z,10.68
2022-10-14T07:38:05.108Z,12.70
2022-10-14T07:40:32.157Z,11.75
2022-10-14T07:42:59.034Z,12.43
2022-10-14T07:45:27.746Z,11.20
2022-10-14T07:47:56.743Z,11.15
2022-10-14T07:50:23.724Z,11.52
2022-10-14T07:52:58.935Z,9.07
2022-10-14T07:55:27.801Z,13.13
2022-10-14T07:57:54.430Z,12.23
2022-10-14T08:00:21.484Z,12.57
2022-10-14T08:02:48.135Z,15.75
2022-10-14T08:08:04.533Z,11.50
2022-10-14T08:10:33.924Z,13.30
2022-10-14T08:13:00.691Z,11.98
2022-10-14T08:15:29.908Z,11.75
2022-10-14T08:17:57.064Z,11.15
2022-10-14T08:20:26.228Z,10.32
2022-10-14T08:22:56.235Z,12.82
2022-10-14T08:25:23.007Z,9.48
2022-10-14T08:27:51.249Z,11.27
2022-10-14T08:30:21.496Z,8.85
2022-10-14T08:32:50.744Z,11.95
2022-10-14T08:35:17.466Z,11.00
2022-10-14T08:37:44.101Z,10.55
2022-10-14T08:40:19.325Z,11.45
2022-10-14T08:43:03.509Z,10.05
2022-10-14T08:45:37.481Z,10.10
2022-10-14T08:48:24.661Z,9.85
2022-10-14T08:51:04.861Z,9.88
2022-10-14T08:53:40.537Z,11.07
2022-10-14T08:56:13.899Z,10.15
2022-10-14T08:58:50.699Z,9.40
2022-10-14T09:01:26.671Z,11.32
2022-10-14T09:04:00.797Z,10.38
2022-10-14T09:06:30.992Z,10.88
2022-10-14T09:09:05.188Z,12.68
2022-10-14T09:11:42.716Z,9.45
2022-10-14T09:14:18.293Z,11.65
2022-10-14T09:16:50.452Z,9.82
2022-10-14T09:19:27.131Z,8.95
2022-10-14T09:21:55.084Z,9.70
2022-10-14T09:24:31.170Z,11.20
2022-10-14T09:27:03.241Z,10.20
2022-10-14T09:29:32.966Z,9.40
2022-10-14T09:32:04.546Z,9.38
2022-10-14T09:34:46.292Z,9.10
2022-10-14T09:37:36.048Z,11.60
2022-10-14T09:40:29.245Z,9.93
2022-10-14T09:43:04.868Z,9.25
2022-10-14T09:45:47.821Z,9.07
2022-10-14T09:48:43.631Z,10.45
2022-10-14T09:51:32.218Z,10.93
2022-10-14T09:54:04.142Z,9.85
2022-10-14T09:56:42.944Z,13.20
2022-10-14T09:59:21.379Z,9.40
2022-10-14T10:01:55.553Z,9.63
2022-10-14T10:04:43.017Z,10.18
2022-10-14T10:07:37.093Z,10.75
2022-10-14T10:10:18.877Z,11.43
2022-10-14T10:12:47.384Z,11.30
2022-10-14T10:15:20.151Z,11.10
2022-10-14T10:17:47.973Z,11.52
2022-10-14T10:20:33.931Z,11.38
2022-10-14T10:23:25.745Z,8.48
2022-10-14T10:25:52.867Z,8.13
2022-10-14T10:28:31.813Z,8.65
2022-10-14T10:31:18.333Z,8.85
2022-10-14T10:34:26.475Z,9.10
2022-10-14T10:37:16.264Z,7.85
2022-10-14T10:40:32.969Z,10.23
2022-10-14T10:43:08.644Z,9.30
2022-10-14T10:45:50.493Z,10.15
2022-10-14T10:48:41.471Z,8.43
2022-10-14T10:51:30.976Z,11.07
2022-10-14T10:54:06.829Z,11.40
2022-10-14T10:56:38.806Z,7.72
2022-10-14T10:59:21.015Z,7.43
2022-10-14T11:02:14.432Z,7.93
2022-10-14T11:05:12.709Z,8.32
2022-10-14T11:08:27.060Z,6.88
2022-10-14T11:11:43.992Z,6.75
2022-10-14T11:14:25.519Z,5.88
2022-10-14T11:16:57.535Z,6.75
2022-10-14T11:19:50.959Z,5.93
2022-10-14T11:22:46.432Z,7.00
2022-10-14T11:25:33.499Z,6.00
2022-10-14T11:28:10.942Z,8.02
2022-10-14T11:30:44.848Z,5.75
2022-10-14T11:33:28.390Z,5.70
2022-10-14T11:36:01.274Z,6.03
2022-10-14T11:38:48.459Z,5.93
2022-10-14T11:41:30.401Z,5.43
2022-10-14T11:44:27.879Z,5.20
2022-10-14T11:46:59.987Z,5.57
2022-10-14T11:49:38.204Z,6.65
2022-10-14T11:52:18.023Z,4.95
2022-10-14T11:54:51.432Z,5.35
2022-10-14T11:57:34.207Z,5.53
2022-10-14T12:00:12.426Z,4.47
2022-10-14T12:02:52.494Z,4.25
2022-10-14T12:05:44.077Z,4.55
2022-10-14T12:08:46.479Z,5.97
2022-10-14T12:11:37.934Z,5.25
2022-10-14T12:14:18.273Z,6.65
2022-10-14T12:16:49.269Z,5.47
2022-10-14T12:19:28.327Z,4.30
2022-10-14T12:22:11.816Z,6.97
2022-10-14T12:24:45.437Z,5.60
2022-10-14T12:27:15.867Z,7.38
2022-10-14T12:29:51.434Z,5.22
2022-10-14T12:32:21.478Z,7.20
2022-10-14T12:34:54.103Z,6.55
2022-10-14T12:37:38.934Z,8.88
2022-10-14T12:40:06.876Z,7.53
2022-10-14T12:42:52.444Z,6.43
2022-10-14T12:45:22.957Z,8.17
2022-10-14T12:48:28.074Z,9.70
2022-10-14T12:51:06.333Z,7.13
2022-10-14T12:53:36.789Z,7.75
2022-10-14T12:56:05.202Z,5.80
2022-10-14T12:58:41.151Z,8.43
2022-10-14T13:01:21.419Z,8.75
2022-10-14T13:03:59.689Z,6.43
2022-10-14T13:06:37.052Z,6.63
2022-10-14T13:09:12.790Z,8.38
2022-10-14T13:11:43.221Z,7.28
2022-10-14T13:14:54.855Z,6.32
2022-10-14T13:17:46.835Z,6.05
2022-10-14T13:20:35.652Z,5.30
2022-10-14T13:23:31.505Z,6.00
2022-10-14T13:26:20.195Z,6.22
2022-10-14T13:29:12.869Z,5.57
2022-10-14T13:32:00.162Z,6.22
2022-10-14T13:34:29.847Z,8.93
2022-10-14T13:37:32.350Z,6.35
2022-10-14T13:40:18.044Z,8.32
2022-10-14T13:42:49.186Z,9.25
2022-10-14T13:45:17.899Z,12.35
2022-10-14T13:47:48.247Z,11.25
2022-10-14T13:50:18.507Z,7.20
2022-10-14T13:53:14.938Z,8.65
2022-10-14T13:55:54.439Z,7.13
2022-10-14T13:58:25.712Z,10.38
2022-10-14T14:01:02.487Z,7.57
2022-10-14T14:03:41.917Z,10.70
2022-10-14T14:06:18.250Z,10.15
2022-10-14T14:08:49.690Z,9.05
2022-10-14T14:11:33.433Z,9.13
2022-10-14T14:14:04.415Z,12.00
2022-10-14T14:16:36.004Z,10.35
2022-10-14T14:19:08.703Z,10.10
2022-10-14T14:21:36.218Z,12.10
2022-10-14T14:24:11.337Z,11.10
2022-10-14T14:26:41.309Z,12.88
2022-10-14T14:29:21.528Z,13.27
2022-10-14T14:32:07.857Z,13.18
2022-10-14T14:34:37.100Z,12.80
2022-10-14T14:37:43.533Z,13.13
2022-10-14T14:40:07.282Z,12.00
2022-10-14T14:42:40.133Z,14.73
2022-10-14T14:45:31.301Z,12.82
2022-10-14T14:48:02.766Z,13.13
2022-10-14T14:50:44.344Z,11.68
2022-10-14T14:53:16.727Z,13.70
2022-10-14T14:55:55.504Z,16.50
2022-10-14T14:58:37.619Z,15.10
2022-10-14T15:01:07.293Z,14.02
2022-10-14T15:04:13.466Z,12.60
2022-10-14T15:06:39.716Z,13.55
2022-10-14T15:09:24.390Z,13.20
2022-10-14T15:11:57.823Z,15.35
2022-10-14T15:14:47.948Z,13.18
2022-10-14T15:17:34.812Z,13.63
2022-10-14T15:20:33.329Z,13.93
2022-10-14T15:23:03.458Z,15.25
2022-10-14T15:25:31.470Z,13.38
2022-10-14T15:28:02.501Z,13.45
2022-10-14T15:30:35.704Z,13.52
2022-10-14T15:33:24.065Z,17.05
2022-10-14T15:35:59.408Z,16.63
2022-10-14T15:38:26.811Z,12.93
2022-10-14T15:40:54.065Z,13.38
2022-10-14T15:43:24.042Z,15.15
2022-10-14T15:46:12.961Z,14.13
2022-10-14T15:48:48.026Z,17.50
2022-10-14T15:51:16.957Z,14.88
2022-10-14T15:53:44.183Z,16.75
2022-10-14T15:56:10.906Z,15.05
2022-10-14T15:58:39.881Z,15.05
2022-10-14T16:01:08.121Z,15.35
2022-10-14T16:03:36.018Z,15.30
2022-10-14T16:06:07.067Z,15.10
2022-10-14T16:08:34.144Z,15.95
2022-10-14T16:11:05.425Z,16.85
2022-10-14T16:13:32.270Z,17.23
2022-10-14T16:16:04.919Z,15.30
2022-10-14T16:18:33.849Z,16.27
2022-10-14T16:21:00.451Z,16.20
2022-10-14T16:23:29.605Z,18.20
2022-10-14T16:26:00.383Z,16.23
2022-10-14T16:28:27.155Z,19.65
2022-10-14T16:30:53.891Z,19.50
2022-10-14T16:33:22.037Z,20.23
2022-10-14T16:35:56.409Z,19.42
2022-10-14T16:38:24.357Z,14.25
2022-10-14T16:40:59.382Z,15.88
2022-10-14T16:43:26.921Z,15.13
2022-10-14T16:45:57.094Z,18.48
2022-10-14T16:48:26.173Z,15.82
2022-10-14T16:50:53.788Z,15.43
2022-10-14T16:53:39.322Z,16.83
2022-10-14T16:56:36.637Z,16.42
2022-10-14T16:59:03.831Z,17.55
2022-10-14T17:01:31.335Z,16.73
2022-10-14T17:03:58.321Z,16.13
2022-10-14T17:06:26.272Z,14.82
2022-10-14T17:08:53.219Z,15.65
2022-10-14T17:11:20.095Z,15.23
2022-10-14T17:13:47.166Z,14.65
2022-10-14T17:16:15.845Z,14.77
2022-10-14T17:18:43.120Z,21.38
2022-10-14T17:21:12.203Z,19.20
2022-10-14T17:23:43.854Z,17.02
2022-10-14T17:26:18.716Z,13.77
2022-10-14T17:28:47.270Z,17.15
2022-10-14T17:31:16.856Z,14.32
2022-10-14T17:33:43.636Z,17.77
2022-10-14T17:36:19.935Z,19.90
2022-10-14T17:38:48.276Z,24.13
2022-10-14T17:41:18.596Z,20.70
2022-10-14T17:43:49.610Z,21.63
2022-10-14T17:46:20.854Z,22.67
2022-10-14T17:48:56.299Z,22.00
2022-10-14T17:51:25.329Z,20.27
2022-10-14T17:53:58.284Z,23.48
2022-10-14T17:56:26.136Z,21.88
2022-10-14T17:58:57.520Z,25.02
2022-10-14T18:01:37.274Z,20.92
2022-10-14T18:04:11.099Z,22.02
2022-10-14T18:06:42.394Z,22.80
2022-10-14T18:09:10.137Z,23.27
2022-10-14T18:12:07.180Z,23.05
2022-10-14T18:14:27.912Z,21.38
2022-10-14T18:16:54.782Z,23.48
2022-10-14T18:19:21.559Z,24.60
2022-10-14T18:21:48.183Z,24.15
2022-10-14T18:24:14.877Z,21.73
2022-10-14T18:26:44.192Z,22.63
2022-10-14T18:29:11.134Z,22.65
2022-10-14T18:31:39.444Z,22.42
2022-10-14T18:34:09.529Z,19.13
2022-10-14T18:36:36.582Z,21.88
2022-10-14T18:39:08.686Z,20.17
2022-10-14T18:41:37.484Z,20.15
2022-10-14T18:44:05.759Z,20.67
2022-10-14T18:46:34.652Z,20.25
2022-10-14T18:49:02.495Z,20.65
2022-10-14T18:51:31.802Z,26.42
2022-10-14T18:54:00.781Z,28.83
2022-10-14T18:56:34.090Z,24.23
2022-10-14T18:59:05.688Z,25.33
2022-10-14T19:01:33.549Z,24.50
2022-10-14T19:04:00.556Z,26.88
2022-10-14T19:06:27.515Z,25.38
2022-10-14T19:08:54.447Z,25.15
2022-10-14T19:11:25.508Z,30.33
2022-10-14T19:13:54.903Z,26.83
2022-10-14T19:16:31.301Z,28.48
2022-10-14T19:19:12.090Z,29.63
2022-10-14T19:21:39.805Z,23.38
2022-10-14T19:24:10.353Z,24.23
2022-10-14T19:26:42.499Z,22.90
2022-10-14T19:29:12.737Z,21.10
2022-10-14T19:31:40.457Z,22.98
2022-10-14T19:34:13.277Z,22.33
2022-10-14T19:36:40.867Z,22.90
2022-10-14T19:39:10.043Z,21.63
2022-10-14T19:41:42.875Z,23.20
2022-10-14T19:44:13.275Z,25.13
2022-10-14T19:46:40.800Z,24.23
2022-10-14T19:49:13.257Z,25.65
2022-10-14T19:51:40.296Z,23.83
2022-10-14T19:54:11.793Z,23.20
2022-10-14T19:56:38.944Z,23.25
2022-10-14T19:59:05.781Z,24.45
2022-10-14T20:01:32.517Z,26.83
2022-10-14T20:04:00.905Z,25.40
2022-10-14T20:06:33.955Z,22.20
2022-10-14T20:09:00.794Z,25.83
2022-10-14T20:11:28.402Z,22.40
2022-10-14T20:13:54.939Z,23.67
2022-10-14T20:16:21.610Z,26.00
2022-10-14T20:18:48.348Z,24.92
2022-10-14T20:21:16.163Z,23.63
2022-10-14T20:23:43.030Z,22.15
2022-10-14T20:26:15.742Z,22.88
2022-10-14T20:28:42.493Z,24.10
2022-10-14T20:31:11.609Z,20.00
2022-10-14T20:33:38.661Z,20.10
2022-10-14T20:36:14.544Z,21.55
2022-10-14T20:38:42.392Z,19.85
2022-10-14T20:41:20.636Z,20.20
2022-10-14T20:43:48.351Z,20.10
2022-10-14T20:46:15.981Z,20.17
2022-10-14T20:48:46.543Z,20.88
2022-10-14T20:51:16.173Z,21.52
2022-10-14T20:53:42.876Z,20.30
2022-10-14T20:56:11.384Z,21.23
2022-10-14T20:58:38.730Z,19.17
2022-10-14T21:01:16.894Z,22.88
2022-10-14T21:03:47.943Z,21.55
2022-10-14T21:06:17.941Z,19.40
2022-10-14T21:08:44.973Z,20.58
2022-10-14T21:11:15.326Z,22.67
2022-10-14T21:13:52.092Z,20.35
2022-10-14T21:16:27.553Z,22.60
2022-10-14T21:18:57.879Z,20.90
2022-10-14T21:21:31.293Z,19.33
2022-10-14T21:23:59.077Z,22.38
2022-10-14T21:26:26.273Z,21.65
2022-10-14T21:28:53.254Z,20.52
2022-10-14T21:31:20.912Z,19.63
2022-10-14T21:33:48.822Z,21.00
2022-10-14T21:36:17.064Z,25.98
2022-10-14T21:38:44.298Z,24.23
2022-10-14T21:41:11.914Z,22.58
2022-10-14T21:43:39.482Z,21.63
2022-10-14T21:46:09.703Z,28.00
2022-10-14T21:48:40.001Z,21.75
2022-10-14T21:51:18.089Z,24.20
2022-10-14T21:53:46.218Z,26.00
2022-10-14T21:56:14.458Z,22.05
2022-10-14T21:58:41.654Z,23.83
2022-10-14T22:01:13.394Z,24.38
2022-10-14T22:03:41.008Z,23.95
2022-10-14T22:06:18.976Z,23.40
2022-10-14T22:08:48.725Z,23.73
2022-10-14T22:11:23.071Z,23.88
2022-10-14T22:13:51.182Z,20.05
2022-10-14T22:16:20.930Z,22.58
2022-10-14T22:18:50.652Z,20.23
2022-10-14T22:21:20.787Z,23.58
2022-10-14T22:23:48.950Z,20.98
2022-10-14T22:26:19.113Z,18.90
2022-10-14T22:28:46.141Z,22.95
2022-10-14T22:31:20.341Z,24.30
2022-10-14T22:33:49.680Z,22.75
2022-10-14T22:36:24.204Z,24.45
2022-10-14T22:38:53.404Z,24.67
2022-10-14T22:41:24.051Z,23.30
2022-10-14T22:43:55.659Z,24.45
2022-10-14T22:46:25.563Z,22.02
2022-10-14T22:48:58.216Z,22.05
2022-10-14T22:51:37.078Z,25.75
2022-10-14T22:54:04.356Z,22.50
2022-10-14T22:56:32.267Z,22.77
2022-10-14T22:59:07.225Z,22.15
2022-10-14T23:01:36.679Z,22.83
2022-10-14T23:04:04.291Z,23.58
2022-10-14T23:06:31.755Z,23.05
2022-10-14T23:09:00.737Z,25.20
2022-10-14T23:11:31.074Z,28.38
2022-10-14T23:14:00.217Z,26.25
2022-10-14T23:16:31.898Z,22.33
2022-10-14T23:18:59.138Z,23.17
2022-10-14T23:21:29.173Z,25.98
2022-10-14T23:23:58.188Z,25.52
2022-10-14T23:26:27.266Z,25.23
2022-10-14T23:28:56.847Z,24.23
2022-10-14T23:31:25.959Z,22.42
2022-10-14T23:33:53.520Z,21.58
2022-10-14T23:36:21.971Z,22.30
2022-10-14T23:38:50.033Z,22.70
2022-10-14T23:41:21.915Z,26.52
2022-10-14T23:43:49.618Z,24.42
2022-10-14T23:46:19.216Z,23.23
2022-10-14T23:48:51.549Z,26.42
2022-10-14T23:51:27.767Z,25.27
2022-10-14T23:53:54.438Z,23.88
2022-10-14T23:56:23.397Z,24.02
2022-10-14T23:58:52.406Z,23.45
